Time;durP1;ratioP1;P1;durP2;ratioP2;P2;SDS_P1;SDS_P2;PMS_P1;PMS_P2;Temp;Humidity;BMP_temperature;BMP_pressure;BME280_temperature;BME280_humidity;BME280_pressure;Samples;Min_cycle;Max_cycle;Signal;HPM_P1;HPM_P2
2023/10/02 00:01:53;;;;;;;16.80;11.13;;;16.00;1.00;;;;;;5135028;28;20872;-60
2023/10/02 00:04:24;;;;;;;16.70;11.10;;;16.00;1.00;;;;;;5134776;28;20801;-60
2023/10/02 00:07:05;;;;;;;16.53;10.97;;;15.90;1.00;;;;;;5134786;27;20507;-59
2023/10/02 00:09:34;;;;;;;17.37;11.20;;;16.00;1.00;;;;;;5135038;28;20865;-60
2023/10/02 00:12:11;;;;;;;18.30;11.33;;;16.00;1.00;;;;;;5134327;28;20459;-60
2023/10/02 00:14:38;;;;;;;14.10;10.10;;;16.10;1.00;;;;;;5134970;27;20907;-60
2023/10/02 00:17:07;;;;;;;16.10;10.77;;;16.00;1.00;;;;;;5135053;28;20457;-60
2023/10/02 00:19:36;;;;;;;17.63;11.70;;;15.90;1.00;;;;;;5134165;28;20965;-59
2023/10/02 00:22:07;;;;;;;17.60;10.90;;;15.80;1.00;;;;;;5134101;28;20454;-60
2023/10/02 00:24:37;;;;;;;17.60;10.40;;;15.70;1.00;;;;;;5134374;27;20505;-59
2023/10/02 00:27:05;;;;;;;19.43;11.00;;;15.60;1.00;;;;;;5134782;28;20462;-59
2023/10/02 00:29:32;;;;;;;16.77;11.80;;;15.50;1.00;;;;;;5134261;28;21306;-60
2023/10/02 00:32:01;;;;;;;16.37;10.83;;;15.50;1.00;;;;;;5120742;28;20884;-59
2023/10/02 00:34:39;;;;;;;14.50;10.73;;;15.50;1.00;;;;;;5120760;28;20554;-60
2023/10/02 00:37:12;;;;;;;21.60;12.43;;;15.50;1.00;;;;;;5120666;28;20834;-60
2023/10/02 00:39:40;;;;;;;18.00;12.07;;;15.50;1.00;;;;;;5119888;28;20487;-60
2023/10/02 00:42:15;;;;;;;13.47;9.70;;;15.60;1.00;;;;;;5120545;28;20729;-60
2023/10/02 00:44:52;;;;;;;16.07;11.17;;;15.70;1.00;;;;;;5120848;28;20434;-60
2023/10/02 00:47:35;;;;;;;15.40;11.00;;;15.50;1.00;;;;;;5120395;28;20477;-60
2023/10/02 00:50:16;;;;;;;15.97;10.87;;;15.40;1.00;;;;;;5120409;28;20954;-60
2023/10/02 00:53:00;;;;;;;14.27;11.17;;;15.40;1.00;;;;;;5120629;28;20574;-60
2023/10/02 00:55:30;;;;;;;20.60;11.60;;;15.30;1.00;;;;;;5119342;28;20880;-60
2023/10/02 00:57:59;;;;;;;15.70;10.60;;;15.30;1.00;;;;;;5119932;28;20459;-60
2023/10/02 01:00:36;;;;;;;19.27;13.03;;;15.20;1.00;;;;;;5119992;28;20484;-60
2023/10/02 01:03:05;;;;;;;17.77;11.33;;;15.20;1.00;;;;;;5119503;28;20541;-59
2023/10/02 01:05:46;;;;;;;19.70;11.37;;;15.10;2.60;;;;;;5120158;28;21736;-60
2023/10/02 01:08:24;;;;;;;17.63;11.87;;;15.00;1.00;;;;;;5119616;28;20818;-60
2023/10/02 01:10:57;;;;;;;17.13;11.27;;;14.80;35.20;;;;;;5119574;28;20451;-60
2023/10/02 01:13:29;;;;;;;15.30;10.10;;;14.80;45.60;;;;;;5119987;28;20833;-60
2023/10/02 01:15:57;;;;;;;14.77;10.40;;;14.70;68.70;;;;;;5119604;28;20967;-60
2023/10/02 01:18:28;;;;;;;16.40;10.83;;;14.70;87.00;;;;;;5119288;28;20497;-60
2023/10/02 01:20:56;;;;;;;16.03;10.90;;;14.60;99.90;;;;;;5119953;28;20595;-60
2023/10/02 01:23:26;;;;;;;15.50;11.33;;;14.70;99.90;;;;;;5119645;28;20807;-60
2023/10/02 01:25:58;;;;;;;17.30;11.27;;;14.70;82.30;;;;;;5119201;28;20435;-60
2023/10/02 01:28:29;;;;;;;18.30;11.20;;;14.60;86.10;;;;;;5119661;28;20499;-59
2023/10/02 01:30:56;;;;;;;18.10;10.60;;;14.60;72.70;;;;;;5119734;28;20463;-60
2023/10/02 01:33:26;;;;;;;17.37;11.03;;;14.60;59.50;;;;;;5119499;28;20459;-60
2023/10/02 01:35:56;;;;;;;14.30;9.30;;;14.60;53.20;;;;;;5119495;28;20459;-60
2023/10/02 01:38:29;;;;;;;17.07;11.40;;;14.50;61.30;;;;;;5119003;28;20460;-60
2023/10/02 01:41:08;;;;;;;15.80;11.47;;;14.50;74.60;;;;;;5119215;28;20491;-60
2023/10/02 01:43:39;;;;;;;14.83;10.30;;;14.50;85.20;;;;;;5118016;28;20532;-60
2023/10/02 01:46:07;;;;;;;14.50;10.40;;;14.50;81.70;;;;;;5118862;28;20451;-60
2023/10/02 01:48:40;;;;;;;16.77;11.10;;;14.50;72.00;;;;;;5119384;28;20947;-60
2023/10/02 01:51:21;;;;;;;18.30;11.97;;;14.50;91.90;;;;;;5119419;28;20502;-59
2023/10/02 01:53:54;;;;;;;13.80;10.80;;;14.50;90.80;;;;;;5119153;28;20487;-60
2023/10/02 01:56:24;;;;;;;14.70;10.63;;;14.50;85.60;;;;;;5119066;28;20459;-60
2023/10/02 01:58:52;;;;;;;17.47;10.70;;;14.40;95.40;;;;;;5118890;28;20467;-60
2023/10/02 02:01:21;;;;;;;15.73;10.37;;;14.50;99.60;;;;;;5119188;28;20776;-60
2023/10/02 02:03:50;;;;;;;19.17;10.67;;;14.40;99.30;;;;;;5118929;28;20896;-60
2023/10/02 02:06:20;;;;;;;17.60;11.40;;;14.40;98.20;;;;;;5118956;28;20873;-60
2023/10/02 02:08:58;;;;;;;18.37;10.37;;;14.50;99.90;;;;;;5118221;28;20546;-59
2023/10/02 02:11:29;;;;;;;17.40;11.37;;;14.40;99.90;;;;;;5118466;28;20968;-60
2023/10/02 02:13:58;;;;;;;17.90;11.20;;;14.50;99.90;;;;;;5118712;28;20459;-60
2023/10/02 02:16:31;;;;;;;17.13;10.13;;;14.40;99.20;;;;;;5118640;28;20551;-60
2023/10/02 02:19:01;;;;;;;17.20;11.43;;;14.50;94.50;;;;;;5118418;28;20814;-60
2023/10/02 02:21:29;;;;;;;16.00;11.03;;;14.40;80.20;;;;;;5117847;28;20447;-60
2023/10/02 02:24:07;;;;;;;17.13;12.03;;;14.40;74.60;;;;;;5116975;28;20452;-60
2023/10/02 02:26:37;;;;;;;19.50;12.30;;;14.40;92.20;;;;;;5117022;28;20621;-58
2023/10/02 02:29:05;;;;;;;16.40;10.47;;;14.40;80.40;;;;;;5117635;27;20465;-61
2023/10/02 02:31:33;;;;;;;14.50;10.77;;;14.40;95.50;;;;;;5116941;28;20911;-60
2023/10/02 02:34:03;;;;;;;15.10;10.10;;;14.40;89.30;;;;;;5117016;28;20534;-59
2023/10/02 02:36:34;;;;;;;18.00;11.47;;;14.30;87.50;;;;;;5117533;28;20451;-60
2023/10/02 02:39:17;;;;;;;16.07;11.70;;;14.30;90.20;;;;;;5118221;28;20885;-61
2023/10/02 02:41:48;;;;;;;15.70;11.40;;;14.20;95.10;;;;;;5117701;28;20457;-60
2023/10/02 02:44:39;;;;;;;18.03;10.73;;;14.30;99.90;;;;;;5118144;28;20566;-60
2023/10/02 02:47:07;;;;;;;18.83;11.23;;;14.30;99.90;;;;;;5117664;28;20462;-60
2023/10/02 02:49:48;;;;;;;20.47;11.57;;;14.20;97.10;;;;;;5117155;28;20457;-60
2023/10/02 02:52:17;;;;;;;16.60;11.43;;;14.20;99.90;;;;;;5117714;28;20455;-60
2023/10/02 02:54:48;;;;;;;15.03;10.90;;;14.20;99.90;;;;;;5117861;28;20455;-60
2023/10/02 02:57:25;;;;;;;15.70;11.10;;;14.20;99.90;;;;;;5117659;28;20458;-60
2023/10/02 03:00:24;;;;;;;17.57;11.10;;;14.20;98.60;;;;;;5117738;28;20483;-60
2023/10/02 03:02:40;;;;;;;17.00;11.80;;;14.20;99.90;;;;;;5117764;28;20487;-60
2023/10/02 03:05:11;;;;;;;16.83;11.90;;;14.20;99.90;;;;;;5118246;28;20732;-60
2023/10/02 03:07:39;;;;;;;17.50;11.17;;;14.10;99.90;;;;;;5117335;28;20463;-60
2023/10/02 03:10:11;;;;;;;15.30;10.90;;;14.10;99.90;;;;;;5117856;28;20546;-60
2023/10/02 03:12:44;;;;;;;18.67;11.00;;;14.10;99.90;;;;;;5117637;28;20464;-60
2023/10/02 03:15:17;;;;;;;19.13;11.70;;;14.10;99.90;;;;;;5118013;28;20481;-60
2023/10/02 03:17:45;;;;;;;21.47;12.20;;;14.10;99.90;;;;;;5117480;28;20459;-60
2023/10/02 03:20:23;;;;;;;14.23;10.70;;;14.10;99.90;;;;;;5117430;28;20595;-60
2023/10/02 03:22:54;;;;;;;18.00;12.13;;;14.10;99.90;;;;;;5118007;28;20905;-60
2023/10/02 03:25:26;;;;;;;18.40;11.70;;;14.20;99.90;;;;;;5118020;28;20724;-60
2023/10/02 03:27:55;;;;;;;17.50;12.70;;;14.20;93.60;;;;;;5117389;28;20464;-60
2023/10/02 03:30:38;;;;;;;16.97;10.70;;;14.00;90.80;;;;;;5117609;28;20547;-61
2023/10/02 03:33:17;;;;;;;16.27;11.83;;;13.90;99.90;;;;;;5117195;28;20759;-61
2023/10/02 03:35:56;;;;;;;17.07;11.73;;;14.00;99.90;;;;;;5117342;28;20459;-60
2023/10/02 03:38:25;;;;;;;17.97;12.20;;;14.00;99.90;;;;;;5117532;28;20827;-60
2023/10/02 03:40:57;;;;;;;15.80;11.03;;;14.00;99.90;;;;;;5117483;28;20839;-60
2023/10/02 03:43:43;;;;;;;20.30;12.20;;;14.00;99.90;;;;;;5117747;28;20455;-61
2023/10/02 03:46:15;;;;;;;16.93;10.97;;;14.00;99.90;;;;;;5117392;28;20479;-60
2023/10/02 03:48:50;;;;;;;16.47;11.03;;;13.90;99.90;;;;;;5117603;28;20558;-60
2023/10/02 03:51:35;;;;;;;20.33;11.40;;;13.90;99.90;;;;;;5116796;28;20461;-60
2023/10/02 03:54:17;;;;;;;14.80;9.70;;;13.80;99.90;;;;;;5117010;28;20503;-60
2023/10/02 03:56:47;;;;;;;16.80;11.97;;;13.80;99.90;;;;;;5115894;28;20482;-60
2023/10/02 03:59:20;;;;;;;23.20;12.30;;;13.80;99.90;;;;;;5117345;28;20481;-60
2023/10/02 04:01:49;;;;;;;22.30;11.77;;;13.80;99.90;;;;;;5117110;28;21019;-60
2023/10/02 04:04:21;;;;;;;18.20;12.13;;;13.90;99.90;;;;;;5117011;28;20467;-61
2023/10/02 04:06:53;;;;;;;17.47;11.57;;;13.90;99.90;;;;;;5119982;28;20463;-60
2023/10/02 04:09:23;;;;;;;15.27;11.37;;;13.90;99.90;;;;;;5121219;28;20459;-60
2023/10/02 04:11:51;;;;;;;16.30;11.60;;;13.80;99.90;;;;;;5120591;28;20455;-61
2023/10/02 04:14:31;;;;;;;18.17;12.00;;;13.80;99.90;;;;;;5120897;28;20752;-60
2023/10/02 04:17:01;;;;;;;20.20;11.50;;;13.80;99.90;;;;;;5121061;28;20513;-60
2023/10/02 04:19:29;;;;;;;17.80;10.80;;;13.80;99.90;;;;;;5120380;28;20483;-61
2023/10/02 04:21:56;;;;;;;23.23;12.33;;;13.80;99.90;;;;;;5120418;28;20497;-60
2023/10/02 04:24:23;;;;;;;18.40;12.70;;;13.90;99.90;;;;;;5120994;28;20455;-60
2023/10/02 04:26:54;;;;;;;15.13;11.03;;;13.90;99.90;;;;;;5121139;28;20733;-60
2023/10/02 04:29:28;;;;;;;16.93;11.30;;;13.90;90.50;;;;;;5121063;28;20508;-60
2023/10/02 04:32:18;;;;;;;17.10;11.70;;;13.90;82.40;;;;;;5121001;28;20459;-60
2023/10/02 04:34:50;;;;;;;17.17;11.83;;;13.80;83.90;;;;;;5120907;28;20733;-60
2023/10/02 04:37:20;;;;;;;17.20;11.77;;;13.80;99.90;;;;;;5120916;28;20459;-60
2023/10/02 04:39:54;;;;;;;17.27;11.60;;;13.70;99.90;;;;;;5120650;28;20467;-60
2023/10/02 04:42:25;;;;;;;18.43;11.73;;;13.70;99.90;;;;;;5120240;28;20463;-60
2023/10/02 04:44:57;;;;;;;17.23;12.03;;;13.70;99.90;;;;;;5120876;28;20455;-60
2023/10/02 04:47:26;;;;;;;16.63;11.37;;;13.70;99.90;;;;;;5120670;28;20460;-60
2023/10/02 04:53:04;;;;;;;17.90;11.87;;;13.60;99.90;;;;;;5120251;28;20446;-60
2023/10/02 04:55:41;;;;;;;18.70;11.93;;;13.60;99.90;;;;;;5120604;28;20456;-60
2023/10/02 04:58:14;;;;;;;19.80;12.30;;;13.50;99.90;;;;;;5119932;28;20459;-60
2023/10/02 05:01:24;;;;;;;17.70;12.40;;;13.50;99.90;;;;;;5120247;28;20494;-60
2023/10/02 05:03:32;;;;;;;18.43;12.00;;;13.50;99.90;;;;;;5119056;28;20478;-60
2023/10/02 05:06:02;;;;;;;18.37;13.60;;;13.50;99.90;;;;;;5119901;28;20455;-60
2023/10/02 05:08:33;;;;;;;18.67;12.30;;;13.60;99.90;;;;;;5118548;28;20464;-60
2023/10/02 05:11:07;;;;;;;19.00;12.40;;;13.50;99.90;;;;;;5119931;28;20462;-60
2023/10/02 05:13:59;;;;;;;20.80;13.30;;;13.60;99.90;;;;;;5119384;28;20549;-60
2023/10/02 05:16:33;;;;;;;18.57;12.33;;;13.50;99.90;;;;;;5120022;28;20495;-60
2023/10/02 05:19:00;;;;;;;14.40;10.40;;;13.40;99.90;;;;;;5119347;28;20487;-60
2023/10/02 05:21:38;;;;;;;19.73;12.20;;;13.50;99.90;;;;;;5119885;28;20935;-60
2023/10/02 05:24:06;;;;;;;16.73;11.60;;;13.40;99.90;;;;;;5119516;28;20477;-60
2023/10/02 05:26:36;;;;;;;21.10;13.40;;;13.40;99.90;;;;;;5119565;28;20819;-60
2023/10/02 05:29:06;;;;;;;17.90;11.73;;;13.40;99.90;;;;;;5119571;28;20471;-59
2023/10/02 05:31:35;;;;;;;18.03;12.33;;;13.40;99.90;;;;;;5119281;28;20447;-60
2023/10/02 05:34:21;;;;;;;15.23;11.57;;;13.40;99.90;;;;;;5117568;28;20472;-60
2023/10/02 05:37:11;;;;;;;19.50;13.20;;;13.40;99.90;;;;;;5118326;28;20514;-58
2023/10/02 05:39:40;;;;;;;17.80;11.97;;;13.50;99.90;;;;;;5118842;28;20563;-59
2023/10/02 05:42:07;;;;;;;19.00;12.13;;;13.50;99.90;;;;;;5118446;28;20848;-59
2023/10/02 05:44:37;;;;;;;19.87;13.30;;;13.50;99.90;;;;;;5118479;28;20504;-59
2023/10/02 05:47:07;;;;;;;18.87;12.17;;;13.50;99.90;;;;;;5119126;28;20974;-60
2023/10/02 05:49:36;;;;;;;22.70;13.17;;;13.50;99.90;;;;;;5119105;28;20550;-57
2023/10/02 05:52:07;;;;;;;19.00;13.53;;;13.60;99.90;;;;;;5118922;28;20463;-60
2023/10/02 05:54:36;;;;;;;19.47;12.53;;;13.80;99.90;;;;;;5119085;28;20830;-60
2023/10/02 05:57:12;;;;;;;17.53;11.90;;;13.80;99.90;;;;;;5119916;28;20459;-59
2023/10/02 05:59:45;;;;;;;19.93;12.80;;;13.90;99.90;;;;;;5119298;28;20459;-60
2023/10/02 06:02:14;;;;;;;21.70;12.50;;;13.80;47.50;;;;;;5119561;28;20528;-59
2023/10/02 06:04:48;;;;;;;22.03;12.73;;;13.80;38.50;;;;;;5119358;28;20462;-59
2023/10/02 06:10:07;;;;;;;18.60;12.33;;;13.80;26.90;;;;;;5118652;28;20916;-59
2023/10/02 06:12:35;;;;;;;22.40;12.53;;;13.80;99.90;;;;;;5119346;28;20455;-60
2023/10/02 06:15:09;;;;;;;20.67;12.40;;;13.80;99.90;;;;;;5119254;27;20463;-60
2023/10/02 06:17:38;;;;;;;17.47;12.27;;;13.90;99.90;;;;;;5119001;28;20455;-59
2023/10/02 06:20:17;;;;;;;16.60;11.30;;;13.90;99.90;;;;;;5118413;28;20511;-59
2023/10/02 06:22:47;;;;;;;22.83;13.60;;;14.00;99.90;;;;;;5119018;28;20450;-59
2023/10/02 06:25:18;;;;;;;19.97;13.80;;;14.00;99.90;;;;;;5118869;28;20451;-60
2023/10/02 06:27:47;;;;;;;18.67;12.20;;;14.10;99.90;;;;;;5118284;28;20566;-60
2023/10/02 06:30:16;;;;;;;19.13;12.90;;;14.20;99.90;;;;;;5118320;28;20459;-59
2023/10/02 06:32:52;;;;;;;20.17;12.80;;;14.20;99.90;;;;;;5118460;28;20464;-59
2023/10/02 06:35:22;;;;;;;20.50;14.33;;;14.20;99.90;;;;;;5118823;28;20456;-60
2023/10/02 06:37:50;;;;;;;18.00;13.20;;;14.30;99.90;;;;;;5117970;28;20489;-60
2023/10/02 06:40:21;;;;;;;17.80;12.10;;;14.30;99.90;;;;;;5098318;28;20525;-60
2023/10/02 06:42:57;;;;;;;18.67;12.80;;;14.40;99.90;;;;;;5098585;28;20460;-60
2023/10/02 06:45:26;;;;;;;19.30;13.30;;;14.40;43.20;;;;;;5098471;28;20460;-60
2023/10/02 06:47:56;;;;;;;20.87;13.57;;;14.40;1.00;;;;;;5098062;28;20464;-60
2023/10/02 06:50:27;;;;;;;20.43;13.57;;;14.50;1.00;;;;;;5098013;28;21006;-60
2023/10/02 06:52:54;;;;;;;18.27;11.97;;;14.60;1.00;;;;;;5100266;28;20504;-60
2023/10/02 06:55:24;;;;;;;19.20;12.50;;;14.60;1.00;;;;;;5117647;28;20495;-59
2023/10/02 06:57:52;;;;;;;18.50;12.10;;;14.70;1.00;;;;;;5117750;28;20459;-60
2023/10/02 07:00:21;;;;;;;21.00;13.40;;;14.90;1.00;;;;;;5118242;28;20529;-60
2023/10/02 07:02:56;;;;;;;20.00;12.40;;;15.10;1.00;;;;;;5118423;28;20884;-58
2023/10/02 07:05:27;;;;;;;19.80;12.30;;;15.30;99.90;;;;;;5117130;28;20494;-58
2023/10/02 07:08:01;;;;;;;21.80;13.53;;;15.60;99.90;;;;;;5116210;28;20478;-60
2023/10/02 07:10:41;;;;;;;17.10;12.80;;;15.90;99.90;;;;;;5115314;28;20487;-60
2023/10/02 07:13:18;;;;;;;15.53;11.43;;;16.10;99.90;;;;;;5116280;28;20483;-60
2023/10/02 07:15:46;;;;;;;18.37;12.00;;;16.20;3.70;;;;;;5115673;28;20451;-60
2023/10/02 07:18:14;;;;;;;18.07;11.80;;;16.50;15.40;;;;;;5115286;28;20463;-60
2023/10/02 07:20:43;;;;;;;14.40;11.03;;;16.70;1.00;;;;;;5116600;28;20543;-58
2023/10/02 07:23:15;;;;;;;19.40;10.97;;;16.90;1.00;;;;;;5115250;28;20455;-58
2023/10/02 07:25:50;;;;;;;16.33;11.40;;;16.90;1.00;;;;;;5115087;28;20455;-60
2023/10/02 07:28:17;;;;;;;19.33;11.53;;;17.00;1.00;;;;;;5114863;28;20467;-60
2023/10/02 07:30:46;;;;;;;16.50;11.57;;;16.80;1.00;;;;;;5115229;28;20524;-59
2023/10/02 07:33:14;;;;;;;15.03;10.90;;;16.90;1.00;;;;;;5115809;28;20503;-58
2023/10/02 07:35:52;;;;;;;19.67;11.37;;;17.00;1.00;;;;;;5115251;28;20488;-60
2023/10/02 07:38:21;;;;;;;18.83;11.57;;;17.30;99.90;;;;;;5116711;28;20459;-58
2023/10/02 07:40:49;;;;;;;18.87;11.50;;;17.40;99.90;;;;;;5118553;28;20471;-60
2023/10/02 07:43:18;;;;;;;18.23;11.50;;;17.60;99.90;;;;;;5121964;28;20771;-60
2023/10/02 07:45:45;;;;;;;17.13;12.60;;;17.80;99.90;;;;;;5121946;28;20553;-60
2023/10/02 07:48:16;;;;;;;17.87;11.87;;;17.90;99.90;;;;;;5119791;28;20546;-60
2023/10/02 07:50:46;;;;;;;14.83;10.90;;;18.20;99.90;;;;;;5119922;28;20461;-60
2023/10/02 07:53:13;;;;;;;16.07;11.93;;;18.40;99.90;;;;;;5120461;28;20487;-59
2023/10/02 07:55:46;;;;;;;18.23;12.27;;;18.60;99.90;;;;;;5122317;27;20541;-60
2023/10/02 07:58:17;;;;;;;16.17;11.57;;;18.90;99.90;;;;;;5119069;28;20462;-60
2023/10/02 08:00:49;;;;;;;17.33;12.20;;;19.20;99.90;;;;;;5119753;28;20451;-60
2023/10/02 08:03:36;;;;;;;16.10;11.30;;;19.30;99.90;;;;;;5141832;27;20454;-61
2023/10/02 08:11:53;;;;;;;17.17;11.77;;;20.00;1.00;;;;;;5094263;28;20622;-58
2023/10/02 08:17:18;;;;;;;18.27;12.50;;;20.20;1.00;;;;;;5087190;28;20809;-58
2023/10/02 08:19:54;;;;;;;16.30;11.77;;;20.40;1.00;;;;;;5094618;28;20460;-58
2023/10/02 08:22:23;;;;;;;17.80;11.87;;;20.60;1.00;;;;;;5094856;28;20460;-58
2023/10/02 08:24:52;;;;;;;15.17;10.90;;;20.90;99.90;;;;;;5094560;28;20484;-58
2023/10/02 08:27:20;;;;;;;16.13;11.43;;;21.10;1.00;;;;;;5094663;28;20487;-58
2023/10/02 08:29:47;;;;;;;16.10;12.07;;;21.40;99.90;;;;;;5094675;28;20765;-58
2023/10/02 08:32:28;;;;;;;18.30;11.43;;;21.50;99.90;;;;;;5094792;28;20495;-59
2023/10/02 08:34:55;;;;;;;20.80;13.93;;;21.60;1.00;;;;;;5094367;28;20487;-59
2023/10/02 08:37:25;;;;;;;15.00;12.40;;;21.90;1.00;;;;;;5094318;28;20452;-59
2023/10/02 08:39:54;;;;;;;19.20;12.43;;;22.20;1.00;;;;;;5094256;28;20804;-59
2023/10/02 08:42:24;;;;;;;19.00;11.27;;;22.40;99.90;;;;;;5094144;28;20948;-59
2023/10/02 08:44:58;;;;;;;17.20;12.07;;;22.40;99.90;;;;;;5094252;28;20754;-59
2023/10/02 08:47:25;;;;;;;15.67;11.53;;;22.50;99.90;;;;;;5094371;28;20759;-58
2023/10/02 08:50:03;;;;;;;16.07;11.93;;;22.70;99.90;;;;;;5093653;28;20517;-59
2023/10/02 08:52:38;;;;;;;15.63;11.47;;;23.00;99.90;;;;;;5093962;28;20461;-58
2023/10/02 08:55:33;;;;;;;16.17;11.60;;;23.30;59.00;;;;;;5094407;28;20461;-58
2023/10/02 08:58:15;;;;;;;17.47;11.97;;;23.30;3.40;;;;;;5093753;28;20538;-58
2023/10/02 09:01:06;;;;;;;16.13;12.33;;;23.40;99.90;;;;;;5093631;28;20460;-59
2023/10/02 09:03:41;;;;;;;15.80;11.30;;;23.60;1.00;;;;;;5093892;28;20460;-59
2023/10/02 09:06:28;;;;;;;18.10;13.07;;;23.80;1.00;;;;;;5093907;28;20751;-59
2023/10/02 09:09:17;;;;;;;19.50;13.17;;;24.10;1.00;;;;;;5093629;28;20501;-59
2023/10/02 09:11:52;;;;;;;14.93;11.23;;;24.30;1.00;;;;;;5093739;28;20457;-59
2023/10/02 09:14:23;;;;;;;16.50;13.00;;;24.30;1.00;;;;;;5093504;28;20460;-59
2023/10/02 09:17:12;;;;;;;18.77;12.57;;;24.50;1.00;;;;;;5093109;28;20467;-59
2023/10/02 09:19:41;;;;;;;18.13;13.03;;;24.60;1.00;;;;;;5084268;28;20874;-59
2023/10/02 09:22:16;;;;;;;17.83;12.17;;;24.80;1.00;;;;;;5079731;28;20468;-59
2023/10/02 09:24:55;;;;;;;19.30;13.63;;;25.00;1.00;;;;;;5079721;28;20555;-59
2023/10/02 09:27:26;;;;;;;16.57;11.90;;;25.20;1.00;;;;;;5079851;28;20528;-59
2023/10/02 09:32:49;;;;;;;18.30;13.60;;;25.20;1.00;;;;;;5079392;28;20518;-59
2023/10/02 09:35:32;;;;;;;19.00;13.20;;;25.30;1.00;;;;;;5079841;28;20514;-59
2023/10/02 09:38:06;;;;;;;18.37;14.63;;;25.30;96.10;;;;;;5079687;28;20536;-59
2023/10/02 09:43:20;;;;;;;20.10;14.20;;;25.40;1.00;;;;;;5079545;28;20440;-59
2023/10/02 09:45:50;;;;;;;20.07;12.90;;;25.50;1.00;;;;;;5079552;28;20453;-59
2023/10/02 09:51:15;;;;;;;17.23;13.50;;;25.80;99.90;;;;;;5079129;28;20429;-59
2023/10/02 09:54:04;;;;;;;20.43;14.53;;;26.10;99.90;;;;;;5079795;28;20740;-59
2023/10/02 09:56:51;;;;;;;15.47;12.90;;;26.30;99.90;;;;;;5079503;28;20560;-59
2023/10/02 09:59:22;;;;;;;17.40;13.60;;;26.40;1.00;;;;;;5079731;28;20883;-59
2023/10/02 10:10:52;;;;;;;20.03;13.50;;;26.70;99.90;;;;;;5078340;28;20567;-59
2023/10/02 10:13:26;;;;;;;16.33;12.97;;;26.80;99.90;;;;;;5078633;28;20968;-59
2023/10/02 10:16:29;;;;;;;18.67;14.93;;;27.20;99.90;;;;;;5079332;28;20720;-59
2023/10/02 10:19:33;;;;;;;17.40;13.70;;;27.40;99.90;;;;;;5075935;28;20557;-60
2023/10/02 10:22:04;;;;;;;20.00;14.30;;;27.60;99.90;;;;;;5078216;28;20456;-59
2023/10/02 10:24:56;;;;;;;18.20;13.80;;;27.70;99.90;;;;;;5079088;28;20576;-59
2023/10/02 10:28:04;;;;;;;16.70;12.83;;;27.80;99.90;;;;;;5078956;28;20458;-60
2023/10/02 10:30:39;;;;;;;19.33;14.40;;;27.80;99.90;;;;;;5077958;28;20469;-59
2023/10/02 10:33:40;;;;;;;18.80;14.07;;;27.50;99.90;;;;;;5078870;28;20946;-60
2023/10/02 10:36:46;;;;;;;19.37;14.43;;;27.50;99.90;;;;;;5077896;28;20443;-59
2023/10/02 10:40:18;;;;;;;18.33;14.73;;;27.70;99.90;;;;;;5078365;28;20449;-60
2023/10/02 10:43:05;;;;;;;17.97;14.53;;;27.90;99.90;;;;;;5077182;28;20951;-57
2023/10/02 10:45:33;;;;;;;18.03;13.17;;;27.90;99.90;;;;;;5077525;28;20894;-59
2023/10/02 10:48:01;;;;;;;20.97;14.53;;;27.70;99.90;;;;;;5077857;28;20485;-60
2023/10/02 10:50:30;;;;;;;18.20;13.23;;;27.90;99.90;;;;;;5078277;28;20904;-59
2023/10/02 10:55:44;;;;;;;18.27;14.60;;;27.90;99.90;;;;;;5077235;28;20472;-59
2023/10/02 10:58:11;;;;;;;17.80;14.50;;;27.90;99.90;;;;;;5076530;28;20488;-59
2023/10/02 11:00:41;;;;;;;20.60;14.93;;;27.90;99.90;;;;;;5077158;28;20818;-59
2023/10/02 11:03:14;;;;;;;19.23;14.33;;;28.10;99.90;;;;;;5077170;28;20556;-59
2023/10/02 11:05:41;;;;;;;20.03;15.30;;;28.10;99.90;;;;;;5077494;28;20464;-59
2023/10/02 11:08:24;;;;;;;17.80;13.60;;;28.10;99.90;;;;;;5076266;28;20532;-60
2023/10/02 11:11:18;;;;;;;20.00;14.77;;;28.50;99.90;;;;;;5077229;28;20551;-59
2023/10/02 11:13:59;;;;;;;18.97;14.87;;;28.70;99.90;;;;;;5077846;28;20543;-59
2023/10/02 11:16:30;;;;;;;17.43;13.87;;;28.80;99.90;;;;;;5077469;28;20464;-59
2023/10/02 11:19:14;;;;;;;18.80;13.87;;;28.70;99.90;;;;;;5077704;28;20468;-59
2023/10/02 11:22:01;;;;;;;20.57;15.27;;;28.90;69.80;;;;;;5077771;28;20913;-59
2023/10/02 11:24:30;;;;;;;18.47;14.40;;;28.90;12.80;;;;;;5077240;28;20476;-59
2023/10/02 11:27:07;;;;;;;18.20;12.77;;;28.90;1.00;;;;;;5077460;28;20443;-59
2023/10/02 11:29:41;;;;;;;16.40;13.50;;;29.00;1.00;;;;;;5077611;28;20489;-59
2023/10/02 11:32:22;;;;;;;19.57;14.53;;;28.90;1.00;;;;;;5077217;28;20774;-59
2023/10/02 11:34:51;;;;;;;17.83;14.47;;;29.10;1.00;;;;;;5077403;28;20469;-60
2023/10/02 11:37:23;;;;;;;17.60;13.50;;;29.10;1.00;;;;;;5077495;28;20461;-59
2023/10/02 11:39:52;;;;;;;17.03;14.00;;;29.20;1.00;;;;;;5077600;28;20457;-58
2023/10/02 11:42:20;;;;;;;16.83;13.80;;;29.30;1.00;;;;;;5076748;28;20500;-58
2023/10/02 11:44:47;;;;;;;15.70;12.80;;;29.10;1.00;;;;;;5077173;28;20821;-59
2023/10/02 11:47:15;;;;;;;18.30;13.30;;;29.10;1.00;;;;;;5077431;28;20462;-59
2023/10/02 11:49:45;;;;;;;15.37;12.80;;;29.00;1.00;;;;;;5076661;28;20497;-58
2023/10/02 11:52:12;;;;;;;16.87;13.73;;;29.00;1.00;;;;;;5076594;28;20953;-58
2023/10/02 11:54:40;;;;;;;17.00;13.27;;;29.10;1.00;;;;;;5077114;28;20465;-59
2023/10/02 11:57:12;;;;;;;19.23;14.43;;;29.20;1.00;;;;;;5077492;28;20504;-59
2023/10/02 11:59:42;;;;;;;21.03;14.47;;;29.30;1.00;;;;;;5077144;28;20483;-59
2023/10/02 12:02:12;;;;;;;17.73;12.50;;;29.50;1.00;;;;;;5077120;28;20571;-59
2023/10/02 12:04:39;;;;;;;17.83;14.10;;;29.80;1.00;;;;;;5077317;28;20460;-59
2023/10/02 12:07:07;;;;;;;19.03;13.67;;;29.70;1.00;;;;;;5076845;28;20495;-59
2023/10/02 12:09:35;;;;;;;14.77;12.23;;;29.90;1.00;;;;;;5077138;28;20515;-59
2023/10/02 12:12:03;;;;;;;20.10;12.77;;;29.90;1.00;;;;;;5077052;28;20886;-59
2023/10/02 12:14:32;;;;;;;16.67;13.70;;;29.90;1.00;;;;;;5076960;28;20461;-59
2023/10/02 12:16:59;;;;;;;15.00;13.30;;;29.90;1.00;;;;;;5076074;28;20469;-59
2023/10/02 12:19:29;;;;;;;15.10;13.50;;;30.00;1.00;;;;;;5076397;28;20492;-59
2023/10/02 12:21:57;;;;;;;16.10;12.83;;;30.00;1.00;;;;;;5075741;28;20465;-57
2023/10/02 12:24:25;;;;;;;15.73;12.27;;;30.10;1.00;;;;;;5075755;28;20461;-59
2023/10/02 12:26:53;;;;;;;15.73;13.10;;;30.10;1.00;;;;;;5076556;28;20511;-59
2023/10/02 12:29:20;;;;;;;16.43;13.17;;;30.10;1.00;;;;;;5077061;28;20525;-60
2023/10/02 12:31:51;;;;;;;15.97;12.97;;;30.30;1.00;;;;;;5076713;28;20460;-59
2023/10/02 12:34:20;;;;;;;16.80;13.53;;;30.40;1.00;;;;;;5076428;28;20461;-59
2023/10/02 12:36:50;;;;;;;16.87;12.80;;;30.30;1.00;;;;;;5076807;28;20808;-59
2023/10/02 12:39:18;;;;;;;18.60;13.10;;;30.40;1.00;;;;;;5076563;28;20461;-59
2023/10/02 12:41:45;;;;;;;15.23;12.60;;;30.50;1.00;;;;;;5076523;28;20515;-58
2023/10/02 12:44:13;;;;;;;13.97;11.00;;;30.30;1.00;;;;;;5076574;28;20497;-58
2023/10/02 12:46:43;;;;;;;17.63;13.50;;;30.10;1.00;;;;;;5076611;28;20913;-59
2023/10/02 12:49:14;;;;;;;15.53;12.47;;;30.20;1.00;;;;;;5076776;28;20489;-59
2023/10/02 12:51:43;;;;;;;14.00;11.23;;;30.00;1.00;;;;;;5076668;28;20548;-60
2023/10/02 12:54:11;;;;;;;13.67;11.50;;;30.00;1.00;;;;;;5077775;28;20889;-59
2023/10/02 12:56:40;;;;;;;12.43;11.10;;;29.90;1.00;;;;;;5078753;28;20777;-57
2023/10/02 12:59:11;;;;;;;13.73;11.83;;;29.90;1.00;;;;;;5078834;28;20460;-58
2023/10/02 13:01:39;;;;;;;14.10;12.40;;;29.70;1.00;;;;;;5078774;28;20468;-58
2023/10/02 13:04:06;;;;;;;16.53;12.40;;;29.50;1.00;;;;;;5078624;28;20514;-58
2023/10/02 13:06:35;;;;;;;15.60;12.30;;;29.00;1.00;;;;;;5078003;28;20547;-58
2023/10/02 13:09:09;;;;;;;16.90;11.90;;;28.80;1.00;;;;;;5077060;28;20575;-58
2023/10/02 13:11:39;;;;;;;12.50;10.50;;;28.80;1.00;;;;;;5078313;28;20514;-58
2023/10/02 13:14:08;;;;;;;15.00;11.20;;;28.70;1.00;;;;;;5078565;28;20461;-59
2023/10/02 13:16:38;;;;;;;13.40;11.30;;;28.80;1.00;;;;;;5079331;28;20460;-57
2023/10/02 13:19:09;;;;;;;13.37;10.97;;;28.80;1.00;;;;;;5077971;28;20461;-58
2023/10/02 13:21:38;;;;;;;13.00;11.57;;;28.40;1.00;;;;;;5078977;28;20472;-59
2023/10/02 13:24:10;;;;;;;17.70;13.47;;;28.20;1.00;;;;;;5078989;28;20477;-58
2023/10/02 13:26:39;;;;;;;16.90;12.17;;;28.00;1.00;;;;;;5080054;28;20457;-59
2023/10/02 13:29:07;;;;;;;15.00;11.37;;;28.00;1.00;;;;;;5079824;28;20877;-59
2023/10/02 13:31:34;;;;;;;13.17;11.30;;;28.10;1.00;;;;;;5080051;28;20809;-58
2023/10/02 13:34:05;;;;;;;12.60;10.53;;;28.10;1.00;;;;;;5079531;28;20457;-59
2023/10/02 13:36:33;;;;;;;15.40;11.97;;;28.00;1.00;;;;;;5079622;28;20461;-58